Terminal Aerodrome Forecast
Issued by NWS

Home | Current Version | Previous Version | Text Only | Print | Product List | Glossary On
Versions: 1 2 3 4 5 6 7 8 9 10 11 12 13 14 15 16 17 18
000
FTUS43 KGRB 262334
TAFOSH
TAF
KOSH 262334Z 2700/2724 23005KT P6SM SCT100 SCT250
     FM270800 27003KT P6SM SCT080 BKN200
     FM271400 30004KT P6SM VCSH SCT060 OVC120
     FM272100 02009KT P6SM VCSH BKN060 PROB30 2721/2724 4SM -SHRA
      BKN040=

USA.gov is the U.S. government's official web portal to all federal, state and local government web resources and services.